createdAt,value
2016-10-18T00:00:50.047Z,927.26
2016-10-18T00:02:00.754Z,927.25
2016-10-18T00:03:11.976Z,927.24
2016-10-18T00:04:22.867Z,927.27
2016-10-18T00:05:33.575Z,927.27
2016-10-18T00:06:44.262Z,927.26
2016-10-18T00:07:54.980Z,927.25
2016-10-18T00:09:05.677Z,927.2
2016-10-18T00:10:16.403Z,927.13
2016-10-18T00:11:27.116Z,927.18
2016-10-18T00:12:37.834Z,927.15
2016-10-18T00:13:48.563Z,927.12
2016-10-18T00:14:59.277Z,927.16
2016-10-18T00:16:10.536Z,927.2
2016-10-18T00:17:21.813Z,927.23
2016-10-18T00:18:32.554Z,927.29
2016-10-18T00:19:43.262Z,927.29
2016-10-18T00:20:53.983Z,927.31
2016-10-18T00:22:04.685Z,927.37
2016-10-18T00:23:15.394Z,927.41
2016-10-18T00:24:26.112Z,927.41
2016-10-18T00:25:36.830Z,927.39
2016-10-18T00:26:47.604Z,927.4
2016-10-18T00:27:58.332Z,927.37
2016-10-18T00:29:09.048Z,927.39
2016-10-18T00:30:19.747Z,927.46
2016-10-18T00:31:30.441Z,927.43
2016-10-18T00:32:41.173Z,927.48
2016-10-18T00:33:51.886Z,927.43
2016-10-18T00:35:02.592Z,927.4
2016-10-18T00:36:14.213Z,927.47
2016-10-18T00:37:24.949Z,927.45
2016-10-18T00:38:35.649Z,927.51
2016-10-18T00:39:46.350Z,927.53
2016-10-18T00:40:57.600Z,927.53
2016-10-18T00:42:08.375Z,927.59
2016-10-18T00:43:19.098Z,927.64
2016-10-18T00:44:29.803Z,927.73
2016-10-18T00:45:40.550Z,927.72
2016-10-18T00:46:51.296Z,927.76
2016-10-18T00:48:02.038Z,927.78
2016-10-18T00:49:12.771Z,927.88
2016-10-18T00:50:24.026Z,927.91
2016-10-18T00:51:34.726Z,927.95
2016-10-18T00:52:45.454Z,927.99
2016-10-18T00:53:56.172Z,927.99
2016-10-18T00:55:06.899Z,928.03
2016-10-18T00:56:17.591Z,928.07
2016-10-18T00:57:28.302Z,928.1
2016-10-18T00:58:39.010Z,928.1
2016-10-18T00:59:49.761Z,928.11
2016-10-18T01:01:00.485Z,928.17
2016-10-18T01:02:11.185Z,928.19
2016-10-18T01:03:21.890Z,928.22
2016-10-18T01:04:32.583Z,928.28
2016-10-18T01:05:43.277Z,928.33
2016-10-18T01:06:53.964Z,928.35
2016-10-18T01:08:04.676Z,928.43
2016-10-18T01:09:15.477Z,928.47
2016-10-18T01:10:26.186Z,928.56
2016-10-18T01:11:37.007Z,928.56
2016-10-18T01:12:47.757Z,928.61
2016-10-18T01:13:58.474Z,928.62
2016-10-18T01:15:09.190Z,928.68
2016-10-18T01:16:19.905Z,928.69
2016-10-18T01:17:30.622Z,928.82
2016-10-18T01:18:41.342Z,928.82
2016-10-18T01:19:52.592Z,928.84
2016-10-18T01:21:03.365Z,928.86
2016-10-18T01:22:14.124Z,928.83
2016-10-18T01:23:24.850Z,928.76
2016-10-18T01:24:35.596Z,928.7
2016-10-18T01:25:46.322Z,928.8
2016-10-18T01:26:57.034Z,928.78
2016-10-18T01:28:07.733Z,928.82
2016-10-18T01:29:18.483Z,928.76
2016-10-18T01:30:29.187Z,928.85
2016-10-18T01:31:39.893Z,928.68
2016-10-18T01:32:50.596Z,928.86
2016-10-18T01:34:01.344Z,928.67
2016-10-18T01:35:12.071Z,928.78
2016-10-18T01:36:22.787Z,928.75
2016-10-18T01:37:33.508Z,928.77
2016-10-18T01:38:44.233Z,928.66
2016-10-18T01:39:54.933Z,928.75
2016-10-18T01:41:05.652Z,928.71
2016-10-18T01:42:16.356Z,928.7
2016-10-18T01:43:27.066Z,928.67
2016-10-18T01:44:37.785Z,928.63
2016-10-18T01:45:48.506Z,928.59
2016-10-18T01:46:59.203Z,928.56
2016-10-18T01:48:09.890Z,928.5
2016-10-18T01:49:20.608Z,928.68
2016-10-18T01:50:31.342Z,928.52
2016-10-18T01:51:42.570Z,928.46
2016-10-18T01:52:53.276Z,928.58
2016-10-18T01:54:03.962Z,928.61
2016-10-18T01:55:14.675Z,928.67
2016-10-18T01:56:25.385Z,928.63
2016-10-18T01:57:36.168Z,928.64
2016-10-18T01:58:46.895Z,928.66
2016-10-18T01:59:57.637Z,928.68
2016-10-18T02:01:08.367Z,928.62
2016-10-18T02:02:19.072Z,928.63
2016-10-18T02:03:29.807Z,928.63
2016-10-18T02:04:40.521Z,928.69
2016-10-18T02:05:51.237Z,928.83
2016-10-18T02:07:01.944Z,928.83
2016-10-18T02:08:12.664Z,928.86
2016-10-18T02:09:23.392Z,928.91
2016-10-18T02:10:34.084Z,928.96
2016-10-18T02:11:44.810Z,928.92
2016-10-18T02:12:55.527Z,929.03
2016-10-18T02:14:06.211Z,929.01
2016-10-18T02:15:16.897Z,929.04
2016-10-18T02:16:27.656Z,928.98
2016-10-18T02:17:38.361Z,928.96
2016-10-18T02:18:49.073Z,928.8
2016-10-18T02:19:59.785Z,928.86
2016-10-18T02:21:10.494Z,928.84
2016-10-18T02:22:21.223Z,928.93
2016-10-18T02:23:31.958Z,928.84
2016-10-18T02:24:42.714Z,928.83
2016-10-18T02:25:53.460Z,928.89
2016-10-18T02:27:04.173Z,928.87
2016-10-18T02:28:14.930Z,928.88
2016-10-18T02:29:25.622Z,928.9
2016-10-18T02:30:36.850Z,928.92
2016-10-18T02:31:47.567Z,928.89
2016-10-18T02:32:58.278Z,928.93
2016-10-18T02:34:08.986Z,928.92
2016-10-18T02:35:19.672Z,928.94
2016-10-18T02:36:30.365Z,928.93
2016-10-18T02:37:41.052Z,928.9
2016-10-18T02:38:51.765Z,928.74
2016-10-18T02:40:02.538Z,928.8
2016-10-18T02:41:13.246Z,928.73
2016-10-18T02:42:23.937Z,928.69
2016-10-18T02:43:34.656Z,928.73
2016-10-18T02:44:45.443Z,928.75
2016-10-18T02:45:56.131Z,928.77
2016-10-18T02:47:06.824Z,928.87
2016-10-18T02:48:18.039Z,928.83
2016-10-18T02:49:28.762Z,928.92
2016-10-18T02:50:39.463Z,928.87
2016-10-18T02:51:50.150Z,928.85
2016-10-18T02:53:00.851Z,928.89
2016-10-18T02:54:11.564Z,928.89
2016-10-18T02:55:22.294Z,928.86
2016-10-18T02:56:33.037Z,928.95
2016-10-18T02:57:43.751Z,928.88
2016-10-18T02:58:54.484Z,928.89
2016-10-18T03:00:05.235Z,928.91
2016-10-18T03:01:15.943Z,928.94
2016-10-18T03:02:26.657Z,928.93
2016-10-18T03:03:37.331Z,928.95
2016-10-18T03:04:48.040Z,928.93
2016-10-18T03:05:58.764Z,928.94
2016-10-18T03:07:09.460Z,928.95
2016-10-18T03:08:20.170Z,928.91
2016-10-18T03:09:30.912Z,928.88
2016-10-18T03:10:42.164Z,928.89
2016-10-18T03:11:52.858Z,928.96
2016-10-18T03:13:03.581Z,928.73
2016-10-18T03:14:14.374Z,928.81
2016-10-18T03:15:25.108Z,928.8
2016-10-18T03:16:35.838Z,928.79
2016-10-18T03:17:46.524Z,928.8
2016-10-18T03:18:57.284Z,928.65
2016-10-18T03:20:08.016Z,928.83
2016-10-18T03:21:19.225Z,928.86
2016-10-18T03:22:29.960Z,928.78
2016-10-18T03:23:40.692Z,928.86
2016-10-18T03:24:51.918Z,928.9
2016-10-18T03:26:02.629Z,928.97
2016-10-18T03:27:13.363Z,928.9
2016-10-18T03:28:24.096Z,929.03
2016-10-18T03:29:34.828Z,928.93
2016-10-18T03:30:45.554Z,928.92
2016-10-18T03:31:56.241Z,928.9
2016-10-18T03:33:06.963Z,928.91
2016-10-18T03:34:18.234Z,928.86
2016-10-18T03:35:29.517Z,928.94
2016-10-18T03:36:40.218Z,928.92
2016-10-18T03:37:50.920Z,928.88
2016-10-18T03:39:02.155Z,928.88
2016-10-18T03:40:12.927Z,928.9
2016-10-18T03:41:23.662Z,928.85
2016-10-18T03:42:34.391Z,928.9
2016-10-18T03:43:45.120Z,928.91
2016-10-18T03:44:56.356Z,928.92
2016-10-18T03:46:07.061Z,928.84
2016-10-18T03:47:17.801Z,928.83
2016-10-18T03:48:28.510Z,928.79
2016-10-18T03:49:39.250Z,928.74
2016-10-18T03:50:49.973Z,928.71
2016-10-18T03:52:01.172Z,928.63
2016-10-18T03:53:11.891Z,928.65
2016-10-18T03:54:22.597Z,928.6
2016-10-18T03:55:33.283Z,928.56
2016-10-18T03:56:43.987Z,928.53
2016-10-18T03:57:54.701Z,928.5
2016-10-18T03:59:05.388Z,928.56
2016-10-18T04:00:16.078Z,928.51
2016-10-18T04:01:26.773Z,928.52
2016-10-18T04:02:37.473Z,928.48
2016-10-18T04:03:48.224Z,928.48
2016-10-18T04:04:58.980Z,928.47
2016-10-18T04:06:09.701Z,928.45
2016-10-18T04:07:20.481Z,928.36
2016-10-18T04:08:31.207Z,928.37
2016-10-18T04:09:41.957Z,928.33
2016-10-18T04:10:52.697Z,928.32
2016-10-18T04:12:03.421Z,928.31
2016-10-18T04:13:14.152Z,928.25
2016-10-18T04:14:24.854Z,928.21
2016-10-18T04:15:35.562Z,928.13
2016-10-18T04:16:46.333Z,928.06
2016-10-18T04:17:57.087Z,928.14
2016-10-18T04:19:07.783Z,928.1
2016-10-18T04:20:18.505Z,928.11
2016-10-18T04:21:29.722Z,928.1
2016-10-18T04:22:40.516Z,928.12
2016-10-18T04:23:51.221Z,928.06
2016-10-18T04:25:01.929Z,928.06
2016-10-18T04:26:12.654Z,928.08
2016-10-18T04:27:23.340Z,928.06
2016-10-18T04:28:34.045Z,928.04
2016-10-18T04:29:45.279Z,928.04
2016-10-18T04:30:55.994Z,928.04
2016-10-18T04:32:06.686Z,927.99
2016-10-18T04:33:17.384Z,928
2016-10-18T04:34:28.067Z,927.97
2016-10-18T04:35:38.758Z,927.94
2016-10-18T04:36:49.471Z,927.92
2016-10-18T04:38:00.222Z,927.93
2016-10-18T04:39:10.922Z,927.93
2016-10-18T04:40:21.640Z,927.88
2016-10-18T04:41:32.350Z,927.86
2016-10-18T04:42:43.038Z,927.86
2016-10-18T04:43:53.745Z,927.73
2016-10-18T04:45:04.465Z,927.71
2016-10-18T04:46:15.184Z,927.7
2016-10-18T04:47:25.919Z,927.66
2016-10-18T04:48:36.640Z,927.64
2016-10-18T04:49:47.328Z,927.6
2016-10-18T04:50:58.588Z,927.57
2016-10-18T04:52:09.327Z,927.52
2016-10-18T04:53:20.060Z,927.52
2016-10-18T04:54:31.289Z,927.46
2016-10-18T04:55:41.990Z,927.45
2016-10-18T04:56:53.192Z,927.4
2016-10-18T04:58:03.888Z,927.32
2016-10-18T04:59:14.594Z,927.31
2016-10-18T05:00:25.293Z,927.23
2016-10-18T05:01:35.976Z,927.19
2016-10-18T05:02:46.653Z,927.23
2016-10-18T05:03:57.380Z,927.23
2016-10-18T05:05:08.141Z,927.17
2016-10-18T05:06:18.886Z,927.2
2016-10-18T05:07:29.847Z,927.24
2016-10-18T05:08:41.060Z,927.22
2016-10-18T05:09:51.753Z,927.25
2016-10-18T05:11:02.450Z,927.21
2016-10-18T05:12:13.168Z,927.24
2016-10-18T05:13:23.861Z,927.22
2016-10-18T05:14:34.588Z,927.12
2016-10-18T05:15:45.287Z,927.08
2016-10-18T05:16:55.971Z,927.05
2016-10-18T05:18:06.659Z,927.02
2016-10-18T05:19:17.343Z,926.98
2016-10-18T05:20:28.061Z,926.95
2016-10-18T05:21:38.760Z,926.92
2016-10-18T05:22:49.470Z,926.9
2016-10-18T05:24:00.169Z,926.96
2016-10-18T05:25:10.868Z,926.97
2016-10-18T05:26:21.555Z,926.96
2016-10-18T05:27:32.256Z,926.97
2016-10-18T05:28:42.985Z,926.92
2016-10-18T05:29:53.689Z,926.92
2016-10-18T05:31:04.381Z,926.92
2016-10-18T05:32:15.073Z,926.87
2016-10-18T05:33:25.841Z,926.88
2016-10-18T05:34:36.535Z,926.86
2016-10-18T05:35:47.228Z,926.87
2016-10-18T05:36:57.922Z,926.86
2016-10-18T05:38:08.623Z,926.88
2016-10-18T05:39:19.298Z,926.82
2016-10-18T05:40:30.015Z,926.79
2016-10-18T05:41:40.739Z,926.87
2016-10-18T05:42:51.916Z,926.82
2016-10-18T05:44:02.623Z,926.91
2016-10-18T05:45:13.334Z,926.96
2016-10-18T05:46:25.943Z,926.99
2016-10-18T05:47:36.634Z,926.97
2016-10-18T05:48:47.852Z,926.99
2016-10-18T05:49:58.547Z,926.93
2016-10-18T05:51:09.232Z,926.9
2016-10-18T05:52:19.940Z,926.82
2016-10-18T05:53:30.638Z,926.8
2016-10-18T05:54:41.333Z,926.75
2016-10-18T05:55:52.030Z,926.74
2016-10-18T05:57:02.736Z,926.78
2016-10-18T05:58:13.477Z,926.79
2016-10-18T05:59:24.176Z,926.79
2016-10-18T06:00:34.864Z,926.84
2016-10-18T06:01:45.596Z,926.85
2016-10-18T06:02:56.333Z,926.84
2016-10-18T06:04:07.030Z,926.86
2016-10-18T06:05:17.744Z,926.82
2016-10-18T06:06:28.948Z,926.81
2016-10-18T06:07:39.663Z,926.76
2016-10-18T06:08:50.383Z,926.71
2016-10-18T06:10:01.114Z,926.69
2016-10-18T06:11:11.888Z,926.67
2016-10-18T06:12:22.594Z,926.59
2016-10-18T06:13:33.305Z,926.58
2016-10-18T06:14:44.011Z,926.55
2016-10-18T06:15:54.719Z,926.51
2016-10-18T06:17:05.692Z,926.51
2016-10-18T06:18:16.380Z,926.49
2016-10-18T06:19:27.112Z,926.51
2016-10-18T06:20:37.828Z,926.51
2016-10-18T06:21:48.550Z,926.49
2016-10-18T06:22:59.255Z,926.46
2016-10-18T06:24:09.998Z,926.43
2016-10-18T06:25:20.784Z,926.41
2016-10-18T06:26:31.495Z,926.41
2016-10-18T06:27:42.226Z,926.39
2016-10-18T06:28:52.983Z,926.36
2016-10-18T06:30:03.684Z,926.36
2016-10-18T06:31:14.391Z,926.34
2016-10-18T06:32:25.102Z,926.36
2016-10-18T06:33:35.799Z,926.34
2016-10-18T06:34:46.523Z,926.37
2016-10-18T06:35:57.239Z,926.37
2016-10-18T06:37:07.954Z,926.4
2016-10-18T06:38:19.151Z,926.43
2016-10-18T06:39:29.862Z,926.42
2016-10-18T06:40:40.598Z,926.42
2016-10-18T06:41:51.297Z,926.42
2016-10-18T06:43:02.007Z,926.44
2016-10-18T06:44:12.706Z,926.44
2016-10-18T06:45:23.406Z,926.47
2016-10-18T06:46:34.167Z,926.51
2016-10-18T06:47:44.875Z,926.47
2016-10-18T06:48:55.605Z,926.51
2016-10-18T06:50:06.379Z,926.51
2016-10-18T06:51:17.110Z,926.54
2016-10-18T06:52:27.802Z,926.55
2016-10-18T06:53:38.500Z,926.53
2016-10-18T06:54:49.216Z,926.53
2016-10-18T06:55:59.920Z,926.53
2016-10-18T06:57:10.615Z,926.52
2016-10-18T06:58:21.315Z,926.51
2016-10-18T06:59:32.051Z,926.49
2016-10-18T07:00:42.751Z,926.52
2016-10-18T07:01:53.447Z,926.48
2016-10-18T07:03:04.156Z,926.52
2016-10-18T07:04:14.884Z,926.54
2016-10-18T07:05:25.597Z,926.52
2016-10-18T07:06:36.295Z,926.53
2016-10-18T07:07:47.024Z,926.54
2016-10-18T07:08:57.757Z,926.57
2016-10-18T07:10:08.498Z,926.56
2016-10-18T07:11:19.240Z,926.58
2016-10-18T07:12:29.965Z,926.6
2016-10-18T07:13:40.656Z,926.66
2016-10-18T07:14:51.368Z,926.65
2016-10-18T07:16:02.066Z,926.61
2016-10-18T07:17:12.787Z,926.67
2016-10-18T07:18:23.525Z,926.66
2016-10-18T07:19:34.220Z,926.67
2016-10-18T07:20:44.967Z,926.66
2016-10-18T07:21:55.684Z,926.63
2016-10-18T07:23:06.412Z,926.64
2016-10-18T07:24:17.120Z,926.61
2016-10-18T07:25:27.912Z,926.56
2016-10-18T07:26:38.609Z,926.6
2016-10-18T07:27:49.329Z,926.59
2016-10-18T07:29:00.028Z,926.57
2016-10-18T07:30:10.726Z,926.55
2016-10-18T07:31:21.464Z,926.58
2016-10-18T07:32:32.199Z,926.56
2016-10-18T07:33:42.929Z,926.46
2016-10-18T07:34:53.628Z,926.48
2016-10-18T07:36:04.342Z,926.45
2016-10-18T07:37:15.047Z,926.43
2016-10-18T07:38:25.745Z,926.44
2016-10-18T07:39:36.449Z,926.41
2016-10-18T07:40:47.194Z,926.45
2016-10-18T07:41:57.964Z,926.4
2016-10-18T07:43:08.680Z,926.39
2016-10-18T07:44:19.373Z,926.39
2016-10-18T07:45:30.094Z,926.4
2016-10-18T07:46:40.835Z,926.36
2016-10-18T07:47:51.562Z,926.35
2016-10-18T07:49:02.238Z,926.33
2016-10-18T07:50:12.977Z,926.32
2016-10-18T07:51:23.677Z,926.36
2016-10-18T07:52:34.407Z,926.36
2016-10-18T07:53:45.112Z,926.4
2016-10-18T07:54:55.815Z,926.41
2016-10-18T07:56:06.521Z,926.42
2016-10-18T07:57:17.204Z,926.5
2016-10-18T07:58:27.974Z,926.55
2016-10-18T07:59:38.703Z,926.58
2016-10-18T08:00:49.426Z,926.57
2016-10-18T08:02:00.121Z,926.53
2016-10-18T08:03:11.331Z,926.54
2016-10-18T08:04:22.036Z,926.57
2016-10-18T08:05:32.728Z,926.55
2016-10-18T08:06:43.456Z,926.52
2016-10-18T08:07:54.200Z,926.53
2016-10-18T08:09:05.673Z,926.49
2016-10-18T08:10:16.388Z,926.48
2016-10-18T08:11:27.314Z,926.47
2016-10-18T08:12:38.539Z,926.46
2016-10-18T08:13:49.266Z,926.46
2016-10-18T08:14:59.953Z,926.47
2016-10-18T08:16:10.650Z,926.43
2016-10-18T08:17:21.356Z,926.45
2016-10-18T08:18:32.073Z,926.43
2016-10-18T08:19:42.786Z,926.44
2016-10-18T08:20:53.471Z,926.43
2016-10-18T08:22:04.194Z,926.49
2016-10-18T08:23:14.887Z,926.47
2016-10-18T08:24:25.736Z,926.47
2016-10-18T08:25:36.948Z,926.46
2016-10-18T08:26:47.686Z,926.45
2016-10-18T08:27:58.410Z,926.48
2016-10-18T08:29:09.122Z,926.43
2016-10-18T08:30:19.869Z,926.41
2016-10-18T08:31:30.565Z,926.4
2016-10-18T08:32:41.272Z,926.44
2016-10-18T08:33:51.969Z,926.43
2016-10-18T08:35:02.680Z,926.47
2016-10-18T08:36:13.389Z,926.44
2016-10-18T08:37:24.091Z,926.44
2016-10-18T08:38:34.810Z,926.41
2016-10-18T08:39:45.543Z,926.45
2016-10-18T08:40:56.246Z,926.45
2016-10-18T08:42:06.961Z,926.41
2016-10-18T08:43:17.682Z,926.44
2016-10-18T08:44:28.397Z,926.43
2016-10-18T08:45:39.614Z,926.38
2016-10-18T08:46:50.336Z,926.38
2016-10-18T08:48:01.061Z,926.39
2016-10-18T08:49:12.265Z,926.4
2016-10-18T08:50:23.033Z,926.37
2016-10-18T08:51:33.747Z,926.29
2016-10-18T08:52:44.458Z,926.31
2016-10-18T08:53:55.171Z,926.3
2016-10-18T08:55:05.873Z,926.28
2016-10-18T08:56:16.561Z,926.3
2016-10-18T08:57:27.343Z,926.24
2016-10-18T08:58:38.034Z,926.26
2016-10-18T08:59:48.737Z,926.27
2016-10-18T09:00:59.459Z,926.23
2016-10-18T09:02:10.219Z,926.23
2016-10-18T09:03:20.940Z,926.22
2016-10-18T09:04:31.693Z,926.19
2016-10-18T09:05:42.414Z,926.21
2016-10-18T09:06:53.128Z,926.16
2016-10-18T09:08:03.827Z,926.17
2016-10-18T09:09:14.538Z,926.15
2016-10-18T09:10:25.241Z,926.18
2016-10-18T09:11:35.928Z,926.12
2016-10-18T09:12:46.685Z,926.17
2016-10-18T09:13:57.401Z,926.14
2016-10-18T09:15:08.134Z,926.12
2016-10-18T09:16:18.825Z,926.12
2016-10-18T09:17:29.532Z,926.12
2016-10-18T09:18:40.237Z,926.14
2016-10-18T09:19:50.952Z,926.16
2016-10-18T09:21:01.665Z,926.17
2016-10-18T09:22:12.367Z,926.19
2016-10-18T09:23:23.576Z,926.22
2016-10-18T09:24:34.274Z,926.22
2016-10-18T09:25:44.985Z,926.24
2016-10-18T09:26:55.686Z,926.27
2016-10-18T09:28:06.382Z,926.3
2016-10-18T09:29:17.122Z,926.31
2016-10-18T09:30:27.871Z,926.34
2016-10-18T09:31:38.569Z,926.36
2016-10-18T09:32:49.287Z,926.3
2016-10-18T09:33:59.998Z,926.34
2016-10-18T09:35:10.714Z,926.31
2016-10-18T09:36:21.474Z,926.33
2016-10-18T09:37:32.162Z,926.34
2016-10-18T09:38:42.848Z,926.31
2016-10-18T09:39:53.591Z,926.29
2016-10-18T09:41:04.896Z,926.27
2016-10-18T09:42:15.590Z,926.26
2016-10-18T09:43:26.289Z,926.28
2016-10-18T09:44:37.001Z,926.24
2016-10-18T09:45:47.704Z,926.22
2016-10-18T09:46:58.440Z,926.21
2016-10-18T09:48:09.137Z,926.16
2016-10-18T09:49:19.864Z,926.17
2016-10-18T09:50:30.595Z,926.16
2016-10-18T09:51:41.312Z,926.14
2016-10-18T09:52:52.050Z,926.14
2016-10-18T09:54:02.746Z,926.16
2016-10-18T09:55:13.464Z,926.13
2016-10-18T09:56:24.178Z,926.16
2016-10-18T09:57:35.478Z,926.19
2016-10-18T09:58:46.174Z,926.19
2016-10-18T09:59:56.887Z,926.18
2016-10-18T10:01:07.608Z,926.19
2016-10-18T10:02:18.330Z,926.21
2016-10-18T10:03:29.039Z,926.25
2016-10-18T10:04:39.775Z,926.23
2016-10-18T10:05:50.520Z,926.22
2016-10-18T10:07:01.225Z,926.25
2016-10-18T10:08:11.916Z,926.27
2016-10-18T10:09:22.632Z,926.28
2016-10-18T10:10:33.328Z,926.27
2016-10-18T10:11:44.044Z,926.2
2016-10-18T10:12:54.739Z,926.26
2016-10-18T10:14:05.466Z,926.24
2016-10-18T10:15:16.171Z,926.28
2016-10-18T10:16:27.051Z,926.27
2016-10-18T10:17:37.801Z,926.24
2016-10-18T10:18:48.492Z,926.29
2016-10-18T10:19:59.218Z,926.24
2016-10-18T10:21:09.921Z,926.28
2016-10-18T10:22:21.131Z,926.27
2016-10-18T10:23:31.851Z,926.25
2016-10-18T10:24:42.569Z,926.29
2016-10-18T10:25:54.691Z,926.33
2016-10-18T10:27:05.398Z,926.29
2016-10-18T10:28:16.118Z,926.29
2016-10-18T10:29:26.878Z,926.3
2016-10-18T10:30:37.569Z,926.29
2016-10-18T10:31:48.780Z,926.22
2016-10-18T10:32:59.503Z,926.24
2016-10-18T10:34:10.743Z,926.25
2016-10-18T10:35:21.440Z,926.25
2016-10-18T10:36:32.182Z,926.23
2016-10-18T10:37:42.889Z,926.2
2016-10-18T10:38:54.129Z,926.22
2016-10-18T10:40:04.834Z,926.21
2016-10-18T10:41:15.564Z,926.2
2016-10-18T10:42:26.290Z,926.24
2016-10-18T10:43:36.999Z,926.24
2016-10-18T10:44:47.706Z,926.23
2016-10-18T10:45:58.452Z,926.25
2016-10-18T10:47:09.196Z,926.26
2016-10-18T10:48:19.918Z,926.27
2016-10-18T10:49:30.687Z,926.26
2016-10-18T10:50:41.398Z,926.28
2016-10-18T10:51:52.136Z,926.25
2016-10-18T10:53:02.850Z,926.28
2016-10-18T10:54:13.555Z,926.29
2016-10-18T10:55:24.293Z,926.3
2016-10-18T10:56:35.035Z,926.29
2016-10-18T10:57:45.748Z,926.31
2016-10-18T10:58:56.448Z,926.32
2016-10-18T11:00:07.188Z,926.34
2016-10-18T11:01:17.904Z,926.37
2016-10-18T11:02:28.653Z,926.35
2016-10-18T11:03:39.437Z,926.42
2016-10-18T11:04:50.171Z,926.42
2016-10-18T11:06:00.896Z,926.42
2016-10-18T11:07:11.596Z,926.48
2016-10-18T11:08:22.330Z,926.42
2016-10-18T11:09:33.042Z,926.45
2016-10-18T11:10:43.754Z,926.47
2016-10-18T11:11:54.456Z,926.43
2016-10-18T11:13:05.382Z,926.46
2016-10-18T11:14:16.111Z,926.43
2016-10-18T11:15:26.855Z,926.45
2016-10-18T11:16:37.579Z,926.43
2016-10-18T11:17:48.324Z,926.4
2016-10-18T11:18:59.084Z,926.4
2016-10-18T11:20:09.814Z,926.39
2016-10-18T11:21:20.557Z,926.36
2016-10-18T11:22:31.288Z,926.37
2016-10-18T11:23:42.006Z,926.38
2016-10-18T11:24:52.717Z,926.3
2016-10-18T11:26:03.484Z,926.34
2016-10-18T11:27:14.196Z,926.31
2016-10-18T11:28:24.884Z,926.36
2016-10-18T11:29:35.612Z,926.36
2016-10-18T11:30:46.379Z,926.37
2016-10-18T11:31:57.136Z,926.36
2016-10-18T11:33:07.978Z,926.35
2016-10-18T11:34:18.932Z,926.35
2016-10-18T11:35:29.678Z,926.34
2016-10-18T11:36:40.482Z,926.33
2016-10-18T11:37:51.234Z,926.31
2016-10-18T11:39:01.987Z,926.28
2016-10-18T11:40:12.711Z,926.28
2016-10-18T11:41:23.445Z,926.28
2016-10-18T11:42:34.161Z,926.28
2016-10-18T11:43:44.873Z,926.27
2016-10-18T11:44:55.635Z,926.27
2016-10-18T11:46:06.349Z,926.29
2016-10-18T11:47:17.051Z,926.37
2016-10-18T11:48:27.780Z,926.37
2016-10-18T11:49:39.017Z,926.4
2016-10-18T11:50:49.741Z,926.43
2016-10-18T11:52:00.472Z,926.43
2016-10-18T11:53:11.211Z,926.42
2016-10-18T11:54:21.985Z,926.43
2016-10-18T11:55:32.722Z,926.47
2016-10-18T11:56:43.445Z,926.45
2016-10-18T11:57:54.181Z,926.45
2016-10-18T11:59:04.919Z,926.46
2016-10-18T12:00:15.664Z,926.45
2016-10-18T12:01:26.920Z,926.5
2016-10-18T12:02:37.649Z,926.54
2016-10-18T12:03:48.372Z,926.52
2016-10-18T12:04:59.062Z,926.49
2016-10-18T12:06:09.751Z,926.5
2016-10-18T12:07:20.491Z,926.54
2016-10-18T12:08:31.213Z,926.51
2016-10-18T12:09:41.925Z,926.55
2016-10-18T12:10:52.630Z,926.55
2016-10-18T12:12:03.334Z,926.59
2016-10-18T12:13:14.045Z,926.59
2016-10-18T12:14:24.779Z,926.63
2016-10-18T12:15:35.519Z,926.67
2016-10-18T12:16:46.315Z,926.59
2016-10-18T12:17:58.095Z,926.57
2016-10-18T12:19:09.338Z,926.56
2016-10-18T12:20:20.721Z,926.51
2016-10-18T12:21:31.929Z,926.51
2016-10-18T12:22:43.096Z,926.55
2016-10-18T12:23:54.314Z,926.52
2016-10-18T12:25:05.503Z,926.55
2016-10-18T12:26:16.720Z,926.57
2016-10-18T12:27:27.917Z,926.51
2016-10-18T12:28:39.103Z,926.58
2016-10-18T12:29:50.372Z,926.58
2016-10-18T12:31:01.619Z,926.61
2016-10-18T12:32:12.821Z,926.59
2016-10-18T12:33:24.337Z,926.6
2016-10-18T12:34:35.524Z,926.61
2016-10-18T12:35:46.681Z,926.6
2016-10-18T12:36:58.019Z,926.61
2016-10-18T12:38:09.196Z,926.59
2016-10-18T12:39:20.390Z,926.64
2016-10-18T12:40:31.580Z,926.62
2016-10-18T12:41:42.764Z,926.63
2016-10-18T12:42:53.937Z,926.63
2016-10-18T12:44:05.119Z,926.6
2016-10-18T12:45:16.309Z,926.56
2016-10-18T12:46:27.528Z,926.54
2016-10-18T12:47:38.706Z,926.52
2016-10-18T12:48:49.898Z,926.54
2016-10-18T12:50:01.179Z,926.54
2016-10-18T12:51:12.358Z,926.48
2016-10-18T12:52:23.600Z,926.47
2016-10-18T12:53:34.791Z,926.46
2016-10-18T12:54:45.962Z,926.46
2016-10-18T12:55:57.149Z,926.47
2016-10-18T12:57:08.410Z,926.34
2016-10-18T12:58:19.619Z,926.46
2016-10-18T12:59:30.820Z,926.42
2016-10-18T13:00:42.017Z,926.47
2016-10-18T13:01:53.126Z,926.45
2016-10-18T13:03:04.384Z,926.49
2016-10-18T13:04:15.124Z,926.4
2016-10-18T13:05:25.853Z,926.4
2016-10-18T13:06:36.605Z,926.44
2016-10-18T13:07:47.341Z,926.43
2016-10-18T13:08:58.104Z,926.42
2016-10-18T13:10:09.332Z,926.41
2016-10-18T13:11:20.048Z,926.42
2016-10-18T13:12:30.758Z,926.46
2016-10-18T13:13:41.528Z,926.41
2016-10-18T13:14:52.268Z,926.44
2016-10-18T13:16:02.969Z,926.41
2016-10-18T13:17:14.217Z,926.39
2016-10-18T13:18:25.257Z,926.41
2016-10-18T13:19:36.011Z,926.41
2016-10-18T13:20:47.235Z,926.37
2016-10-18T13:21:57.951Z,926.4
2016-10-18T13:23:08.668Z,926.44
2016-10-18T13:24:19.444Z,926.43
2016-10-18T13:25:30.671Z,926.43
2016-10-18T13:26:41.401Z,926.37
2016-10-18T13:27:52.673Z,926.36
2016-10-18T13:29:03.400Z,926.47
2016-10-18T13:30:14.157Z,926.37
2016-10-18T13:31:25.369Z,926.46
2016-10-18T13:32:36.619Z,926.42
2016-10-18T13:33:47.344Z,926.35
2016-10-18T13:34:58.064Z,926.39
2016-10-18T13:36:09.414Z,926.37
2016-10-18T13:37:20.131Z,926.3
2016-10-18T13:38:30.853Z,926.3
2016-10-18T13:39:41.578Z,926.29
2016-10-18T13:40:52.887Z,926.33
2016-10-18T13:42:03.624Z,926.32
2016-10-18T13:43:14.357Z,926.28
2016-10-18T13:44:25.598Z,926.34
2016-10-18T13:45:36.332Z,926.37
2016-10-18T13:46:47.633Z,926.41
2016-10-18T13:47:58.408Z,926.24
2016-10-18T13:49:09.146Z,926.3
2016-10-18T13:50:21.754Z,926.48
2016-10-18T13:51:32.461Z,926.22
2016-10-18T13:52:43.176Z,926.33
2016-10-18T13:53:53.922Z,926.31
2016-10-18T13:55:04.636Z,926.28
2016-10-18T13:56:15.841Z,926.26
2016-10-18T13:57:27.240Z,926.22
2016-10-18T13:58:37.977Z,926.19
2016-10-18T13:59:48.687Z,926.21
2016-10-18T14:00:59.435Z,926.18
2016-10-18T14:02:10.141Z,926.16
2016-10-18T14:03:20.856Z,926.21
2016-10-18T14:04:31.593Z,926.19
2016-10-18T14:05:42.373Z,926.16
2016-10-18T14:06:53.099Z,926.15
2016-10-18T14:08:03.854Z,926.11
2016-10-18T14:09:14.579Z,926.11
2016-10-18T14:10:25.318Z,926.09
2016-10-18T14:11:36.028Z,926.12
2016-10-18T14:12:46.745Z,926.12
2016-10-18T14:13:57.500Z,926.17
2016-10-18T14:15:08.232Z,926.04
2016-10-18T14:16:19.548Z,926.06
2016-10-18T14:17:30.790Z,926.11
2016-10-18T14:18:41.524Z,926.09
2016-10-18T14:19:52.288Z,926.1
2016-10-18T14:21:03.051Z,926.05
2016-10-18T14:22:13.807Z,926.05
2016-10-18T14:23:24.518Z,926.08
2016-10-18T14:24:35.735Z,925.96
2016-10-18T14:25:46.459Z,925.95
2016-10-18T14:26:57.164Z,925.94
2016-10-18T14:28:07.925Z,925.98
2016-10-18T14:29:18.648Z,925.94
2016-10-18T14:30:29.381Z,925.9
2016-10-18T14:31:40.119Z,925.95
2016-10-18T14:32:51.382Z,925.91
2016-10-18T14:34:02.135Z,925.88
2016-10-18T14:35:12.850Z,925.91
2016-10-18T14:36:23.562Z,925.89
2016-10-18T14:37:34.281Z,925.89
2016-10-18T14:38:45.010Z,925.85
2016-10-18T14:39:55.734Z,925.87
2016-10-18T14:41:06.459Z,925.81
2016-10-18T14:42:17.712Z,925.83
2016-10-18T14:43:28.450Z,925.87
2016-10-18T14:44:39.222Z,925.79
2016-10-18T14:45:50.483Z,925.83